VNKTVQPR

Guest
Details From VNKT - Kathmandu Tribhuvan Intl
To VQPR - Paro
Flight Number -
Tags Generated
Created
Modified
Stats Distance 218 nm / 403 km
Max Altitude 0 ft / 0 m
Waypoints 3
Social Downloads 0
Likes 0
Share VATSIM

Download

Looking for another format? Having issues loading an existing format? Contact us
Advertisement - Login to hide

Notes

Generated

Route

VNKT PR VQPR

ID Type Via Altitude Latitude Longitude Leg Dist Tot Dist Heading (true) Name
O VNKT APT - 0 ft / 0 m 27.68381˚ 85.35342˚ - 0 nm - -
PR NDB - 0 ft / 0 m 27.40034˚ 89.41542˚ 216 nm 216 nm 94° / 95° PARO NDB
O VQPR APT - 0 ft / 0 m 27.41091˚ 89.41972˚ 0 nm 217 nm 20° / 20° -

Altitude Profile

Advertisement - Login to hide

Weather


0- 5 10 15 20 25 30 35+ Temperature / ° C

Clouds and Precipitation
Forecast for 2018-05-26 00:00 UTC. Updated 5 hours ago

Ground ~20,000 ft ~40,000 ft Winds

VNKT

Details ICAO VNKT (KTM)
Name Kathmandu Tribhuvan Intl
Region Nepal
Timezone Asia/Kathmandu (UTC+5.8)
Stats Elevation 4,390 ft / 1,338 m (AMSL)
Location 27.696583° 85.359100°
Runways 1
Magnetic Variation 0.514° E

METAR

VNKT 260420Z VRB02KT 6000 FEW015 SCT030 27/19 Q1012 NOSIG

Decode

TAF

TAF VNKT 252300Z 2600/2624 VRB02KT 4000 BR/-RA FEW015 SCT030 BKN100 PROB40 2601/2603 2000 BR BECMG 2604/2605 13003KT 6000 FEW015 SCT100 BECMG 2607/2608 29008KT 8000 FEW020 SCT030 BKN100 PROB30 2608/2612 VRB10KT 4000 -TSRA FEW025CB BKN100 BECMG 2614/2615 11003KT 6000 FEW015 SCT030

Decode

Departure Runways

ID Width Length Bearing (true) Bearing (mag) Surface Threshold Offset Overrun Length
02 148 ft / 45 m 10,017 ft / 3,053 m 21.50° 20.99° Asphalt 0 ft / 0 m 0 ft / 0 m
20 148 ft / 45 m 10,017 ft / 3,053 m 201.51° 201.00° Asphalt 400 ft / 122 m 0 ft / 0 m

VQPR

Details ICAO VQPR (PBH)
Name PARO
Region Bhutan
Timezone Asia/Thimphu (UTC+6.0)
Stats Elevation 7,332 ft / 2,235 m (AMSL)
Location 27.403190° 89.424605°
Runways 1
Magnetic Variation 0.143° E

METAR

VQPR 260400Z 17007KT 9999 SCT025 BKN100 19/12 Q1019

Decode

TAF

Not found

Destination Runways

ID Width Length Bearing (true) Bearing (mag) Surface Threshold Offset Overrun Length
15 95 ft / 29 m 6,462 ft / 1,970 m 150.65° 150.51° Asphalt 0 ft / 0 m 390 ft / 119 m
33 95 ft / 29 m 6,462 ft / 1,970 m 330.65° 330.51° Asphalt 0 ft / 0 m 217 ft / 66 m

Popular Alternatives